Flight Track Log - Related Links

Times and Time Zones

All times are in EDT time to prevent confusion due to time zone crossing. See the LAN439 flight status page for this flight to view local times or setup timezone preferences in your user account.

Time Position Orientation Groundspeed Altitude Reporting Facility
EDT Latitude Longitude Course Direction KTS MPH feet Rate Location/Type
Tue 07:47:47 AM -33.7210 -70.7550 140° Southeast 290 334 15,000  Level FlightAware ADS-B
Tue 07:48:19 AM -33.7540 -70.7240 142° Southeast 298 343 16,200 2,123 Climbing FlightAware ADS-B
Tue 07:48:52 AM -33.7870 -70.6920 141° Southeast 304 350 17,300 2,197 Climbing FlightAware ADS-B
Tue 07:49:30 AM -33.8340 -70.6470 142° Southeast 322 371 18,800 2,000 Climbing FlightAware ADS-B
Tue 07:50:04 AM -33.8770 -70.6070 142° Southeast 340 391 19,700 1,182 Climbing FlightAware ADS-B
Tue 07:50:36 AM -33.9200 -70.5660 142° Southeast 371 427 20,100 608 Climbing FlightAware ADS-B
Tue 07:51:23 AM -33.9690 -70.5200 142° Southeast 398 458 20,500 600 Climbing FlightAware ADS-B
Tue 07:51:36 AM -33.9950 -70.4760 125° Southeast 436 502 20,700 1,130 Climbing FlightAware ADS-B
Tue 07:52:32 AM -34.0310 -70.3490 109° East 463 533 21,800 936 Climbing FlightAware ADS-B
Tue 07:53:25 AM -34.0670 -70.2230 109° East 468 539 22,400 928 Climbing FlightAware ADS-B
Tue 07:54:09 AM -34.1000 -70.1030 108° East 478 550 23,300 675 Climbing FlightAware ADS-B
Tue 07:54:45 AM -34.1210 -70.0250 108° East 478 550 23,300  Level FlightAware ADS-B
Tue 07:55:21 AM -34.1420 -69.9470 108° East 478 550 23,300  Level FlightAware ADS-B
Tue 07:55:57 AM -34.1630 -69.8690 108° East 478 550 23,300  Level FlightAware ADS-B
Tue 07:56:33 AM -34.1840 -69.7920 108° East 478 550 23,300  Level FlightAware ADS-B
Tue 07:57:09 AM -34.2050 -69.7140 108° East 478 550 23,300 2,418 Level FlightAware ADS-B
Tue 07:59:00 AM -34.2211 -69.5038 95° East  Level Estimated
Tue 08:00:00 AM -34.2297 -69.3901 95° East  Level Estimated
Tue 08:01:00 AM -34.2382 -69.2764 95° East  Level Estimated
Tue 08:01:01 AM -34.4220 -68.9900 95° East 484 557 34,100  Level FlightAware ADS-B
Tue 08:01:38 AM -34.4450 -68.9090 109° East 484 557 34,100 519 Level FlightAware ADS-B
Tue 08:02:22 AM -34.4760 -68.7990 109° East 484 557 34,800 525 Climbing FlightAware ADS-B
Tue 08:02:58 AM -34.4980 -68.7200 109° East 484 557 34,800  Level FlightAware ADS-B
Tue 08:03:34 AM -34.5210 -68.6420 110° East 484 557 34,800  Level FlightAware ADS-B
Tue 08:04:11 AM -34.5440 -68.5610 109° East 484 557 34,800  Level FlightAware ADS-B
Tue 08:04:47 AM -34.5660 -68.4820 109° East 484 557 34,800 -126 Level FlightAware ADS-B
Tue 08:07:00 AM -34.5760 -68.2282 93° East  Level Estimated
Tue 08:08:00 AM -34.5803 -68.1137 93° East  Level Estimated
Tue 08:09:00 AM -34.5846 -67.9992 93° East  Level Estimated
Tue 08:10:00 AM -34.5887 -67.8846 93° East  Level Estimated
Tue 08:11:00 AM -34.5927 -67.7701 92° East  Level Estimated
Tue 08:12:00 AM -34.5966 -67.6555 92° East  Level Estimated
Tue 08:13:00 AM -34.6005 -67.5410 92° East  Level Estimated
Tue 08:14:00 AM -34.6042 -67.4264 92° East  Level Estimated
Tue 08:15:00 AM -34.6077 -67.3118 92° East  Level Estimated
Tue 08:16:00 AM -34.6112 -67.1972 92° East  Level Estimated
Tue 08:17:00 AM -34.6146 -67.0826 92° East  Level Estimated
Tue 08:18:00 AM -34.6179 -66.9680 92° East  Level Estimated
Tue 08:19:00 AM -34.6211 -66.8533 92° East  Level Estimated
Tue 08:20:00 AM -34.6241 -66.7387 92° East  Level Estimated
Tue 08:21:00 AM -34.6271 -66.6240 92° East  Level Estimated
Tue 08:22:00 AM -34.6299 -66.5094 92° East  Level Estimated
Tue 08:23:00 AM -34.6326 -66.3947 92° East  Level Estimated
Tue 08:24:00 AM -34.6353 -66.2801 92° East  Level Estimated
Tue 08:25:00 AM -34.6378 -66.1654 92° East  Level Estimated
Tue 08:26:00 AM -34.6402 -66.0507 91° East  Level Estimated
Tue 08:27:00 AM -34.6425 -65.9360 91° East  Level Estimated
Tue 08:28:00 AM -34.6447 -65.8213 91° East  Level Estimated
Tue 08:29:00 AM -34.6468 -65.7066 91° East  Level Estimated
Tue 08:30:00 AM -34.6488 -65.5919 91° East  Level Estimated
Tue 08:31:00 AM -34.6507 -65.4772 91° East  Level Estimated
Tue 08:32:00 AM -34.6524 -65.3625 91° East  Level Estimated
Tue 08:33:00 AM -34.6541 -65.2478 91° East  Level Estimated
Tue 08:34:00 AM -34.6556 -65.1331 91° East  Level Estimated
Tue 08:35:00 AM -34.6571 -65.0183 91° East  Level Estimated
Tue 08:36:00 AM -34.6584 -64.9036 91° East  Level Estimated
Tue 08:37:00 AM -34.6597 -64.7889 91° East  Level Estimated
Tue 08:38:00 AM -34.6608 -64.6741 91° East  Level Estimated
Tue 08:39:00 AM -34.6618 -64.5594 91° East  Level Estimated
Tue 08:40:00 AM -34.6627 -64.4446 91° East  Level Estimated
Tue 08:41:00 AM -34.6635 -64.3299 91° East  Level Estimated
Tue 08:42:00 AM -34.6642 -64.2151 90° East  Level Estimated
Tue 08:43:00 AM -34.6648 -64.1004 90° East  Level Estimated
Tue 08:44:00 AM -34.6653 -63.9856 90° East  Level Estimated
Tue 08:45:00 AM -34.6656 -63.8709 90° East  Level Estimated
Tue 08:46:00 AM -34.6659 -63.7561 90° East  Level Estimated
Tue 08:47:00 AM -34.6661 -63.6414 90° East  Level Estimated
Tue 08:48:00 AM -34.6661 -63.5266 90° East  Level Estimated
Tue 08:49:00 AM -34.6660 -63.4119 90° East  Level Estimated
Tue 08:50:00 AM -34.6659 -63.2971 90° East  Level Estimated
Tue 08:51:00 AM -34.6656 -63.1824 90° East  Level Estimated
Tue 08:52:00 AM -34.6652 -63.0676 90° East  Level Estimated
Tue 08:53:00 AM -34.6647 -62.9529 90° East  Level Estimated
Tue 08:54:00 AM -34.6641 -62.8381 90° East  Level Estimated
Tue 08:55:00 AM -34.6634 -62.7234 90° East  Level Estimated
Tue 08:55:09 AM -35.0150 -60.3750 90° East 411 473 28,400  Level FlightAware ADS-B
Tue 08:55:45 AM -35.0160 -60.2910 91° East 398 458 27,400 -1,521 Descending FlightAware ADS-B
Tue 08:56:20 AM -35.0180 -60.2170 92° East 386 444 26,600 -1,352 Descending FlightAware ADS-B
Tue 08:56:56 AM -35.0190 -60.1400 91° East 375 432 25,800 -1,391 Descending FlightAware ADS-B
Tue 08:57:29 AM -35.0200 -60.0700 91° East 365 420 25,000 -1,478 Descending FlightAware ADS-B
Tue 08:58:05 AM -35.0210 -59.9950 91° East 356 410 24,100 -1,324 Descending FlightAware ADS-B
Tue 08:58:37 AM -35.0220 -59.9340 91° East 348 400 23,500 -1,457 Descending FlightAware ADS-B
Tue 08:59:15 AM -35.0230 -59.8620 91° East 341 392 22,400 -2,676 Descending FlightAware ADS-B
Tue 08:59:51 AM -35.0240 -59.7870 91° East 366 421 20,200 -3,875 Descending FlightAware ADS-B
Tue 09:00:03 AM -35.0230 -59.7610 87° East 379 436 19,300 -4,200 Descending FlightAware ADS-B
Tue 09:00:11 AM -35.0190 -59.7450 73° East 384 442 18,800 -3,000 Descending FlightAware ADS-B
Tue 09:00:27 AM -35.0050 -59.7140 61° Northeast 383 441 18,100 -2,571 Descending FlightAware ADS-B
Tue 09:01:00 AM -34.9750 -59.6560 58° Northeast 383 441 16,700 -1,941 Descending FlightAware ADS-B
Tue 09:01:35 AM -34.9440 -59.5900 60° Northeast 369 425 15,900 -1,478 Descending FlightAware ADS-B
Tue 09:02:09 AM -34.9150 -59.5290 60° Northeast 355 409 15,000 -1,412 Descending FlightAware ADS-B
Tue 09:02:43 AM -34.8880 -59.4720 60° Northeast 342 394 14,300 -1,147 Descending FlightAware ADS-B
Tue 09:03:17 AM -34.8620 -59.4170 60° Northeast 327 376 13,700 -1,371 Descending FlightAware ADS-B
Tue 09:03:53 AM -34.8340 -59.3590 60° Northeast 324 373 12,700 -1,667 Descending FlightAware ADS-B
Tue 09:04:29 AM -34.8080 -59.3030 61° Northeast 325 374 11,700 -1,583 Descending FlightAware ADS-B
Tue 09:05:05 AM -34.7810 -59.2460 60° Northeast 321 369 10,800 -1,417 Descending FlightAware ADS-B
Tue 09:05:41 AM -34.7540 -59.1900 60° Northeast 310 357 10,000 -1,286 Descending FlightAware ADS-B
Tue 09:06:01 AM -34.7400 -59.1600 60° Northeast 306 352 9,600 -1,317 Descending FlightAware ADS-B
Tue 09:06:22 AM -34.7260 -59.1300 60° Northeast 304 350 9,100 -1,610 Descending FlightAware ADS-B
Tue 09:06:42 AM -34.7110 -59.1000 59° Northeast 302 348 8,500 -1,773 Descending FlightAware ADS-B
Tue 09:07:06 AM -34.6940 -59.0650 59° Northeast 303 349 7,800 -1,636 Descending FlightAware ADS-B
Tue 09:07:26 AM -34.6800 -59.0350 60° Northeast 300 345 7,300 -1,200 Descending FlightAware ADS-B
Tue 09:07:46 AM -34.6660 -59.0060 60° Northeast 292 336 7,000 -1,050 Descending FlightAware ADS-B
Tue 09:08:06 AM -34.6530 -58.9780 61° Northeast 286 329 6,600 -1,256 Descending FlightAware ADS-B
Tue 09:08:29 AM -34.6370 -58.9460 59° Northeast 285 328 6,100 -818 Descending FlightAware ADS-B
Tue 09:08:50 AM -34.6230 -58.9160 60° Northeast 289 333 6,000 -150 Descending FlightAware ADS-B
Tue 09:09:09 AM -34.6100 -58.8890 60° Northeast 290 334 6,000  Level FlightAware ADS-B
Tue 09:09:29 AM -34.5970 -58.8610 61° Northeast 286 329 6,000 -818 Level FlightAware ADS-B
Tue 09:09:53 AM -34.5820 -58.8300 60° Northeast 288 331 5,400 -1,500 Descending FlightAware ADS-B
Tue 09:10:13 AM -34.5670 -58.8000 59° Northeast 286 329 4,900 -1,143 Descending FlightAware ADS-B
Tue 09:10:35 AM -34.5510 -58.7710 56° Northeast 276 318 4,600 -714 Descending FlightAware ADS-B
Tue 09:10:55 AM -34.5380 -58.7470 57° Northeast 266 306 4,400 -480 Descending FlightAware ADS-B
Tue 09:11:00 AM -34.5340 -58.7400 55° Northeast 264 304 4,400 -933 Level FlightAware ADS-B
Tue 09:11:40 AM -34.5090 -58.6920 58° Northeast 252 290 3,700 -1,200 Descending FlightAware ADS-B
Tue 09:12:00 AM -34.4960 -58.6670 58° Northeast 257 296 3,200 -1,227 Descending FlightAware ADS-B
Tue 09:12:24 AM -34.4820 -58.6410 57° Northeast 254 292 2,800 -818 Descending FlightAware ADS-B
Tue 09:12:44 AM -34.4680 -58.6150 57° Northeast 243 280 2,600 -750 Descending FlightAware ADS-B
Tue 09:12:56 AM -34.4620 -58.6010 63° Northeast 234 269 2,400 -632 Descending FlightAware ADS-B
Tue 09:13:03 AM -34.4610 -58.5910 83° East 224 258 2,400  Level FlightAware ADS-B
Tue 09:13:31 AM -34.4720 -58.5650 117° Southeast 171 197 2,400  Level FlightAware ADS-B
Tue 09:13:51 AM -34.4820 -58.5520 133° Southeast 150 173 2,400 -273 Level FlightAware ADS-B
Tue 09:14:15 AM -34.4920 -58.5370 129° Southeast 142 163 2,200 -682 Descending FlightAware ADS-B
Tue 09:14:35 AM -34.5000 -58.5230 125° Southeast 142 163 1,900 -900 Descending FlightAware ADS-B
Tue 09:14:55 AM -34.5070 -58.5100 123° Southeast 146 168 1,600 -727 Descending FlightAware ADS-B
Tue 09:15:08 AM -34.5110 -58.5010 118° Southeast 139 160 1,500 -706 Descending FlightAware ADS-B
Tue 09:15:29 AM -34.5190 -58.4870 125° Southeast 143 165 1,200 -837 Descending FlightAware ADS-B
Tue 09:15:51 AM -34.5270 -58.4730 125° Southeast 138 159 900 -818 Descending FlightAware ADS-B
Tue 09:16:13 AM -34.5350 -58.4590 125° Southeast 138 159 600 -857 Descending FlightAware ADS-B
Tue 09:16:33 AM -34.5430 -58.4460 127° Southeast 142 163 300 -393 Descending FlightAware ADS-B
Tue 09:17:14 AM -34.5560 -58.4210 122° Southeast 142 163 200 -146 Descending FlightAware ADS-B
Tue 09:19:00 AM -34.5500 -58.4167 90° East  Level FlightAware Approximate
Tue 09:20:00 AM -34.5592 -58.4156 90° East  Level Estimated
Tue 09:21:00 AM -34.5592 -58.4156 90° East  Level Estimated
Tue 09:22:00 AM -34.5592 -58.4156 90° East  Level Estimated
Tue 09:23:00 AM -34.5592 -58.4156 90° East  Level Estimated
Tue 09:24:00 AM -34.5592 -58.4156 90° East  Level Estimated
Tue 09:25:00 AM -34.5592 -58.4156 90° East  Level Estimated
Tue 09:26:00 AM -34.5592 -58.4156 90° East  Level Estimated
Tue 09:27:00 AM -34.5592 -58.4156 90° East  Level Estimated
Tue 09:28:00 AM -34.5592 -58.4156 90° East  Level Estimated
Tue 09:29:00 AM -34.5592 -58.4156 90° East  Level Estimated
Tue 09:30:00 AM -34.5592 -58.4156 90° East  Level Estimated
Tue 09:31:00 AM -34.5592 -58.4156 90° East  Level Estimated
Tue 09:32:00 AM -34.5592 -58.4156 90° East  Level Estimated
Tue 09:33:00 AM -34.5592 -58.4156 90° East  Level Estimated
Tue 09:34:00 AM -34.5592 -58.4156 90° East  Level Estimated
Tue 09:35:00 AM -34.5592 -58.4156 90° East  Level Estimated
Tue 09:36:00 AM -34.5592 -58.4156 90° East  Level Estimated
Tue 09:37:00 AM -34.5592 -58.4156 90° East  Level Estimated
Tue 09:38:00 AM -34.5592 -58.4156 90° East  Level Estimated
Tue 09:39:00 AM -34.5592 -58.4156 90° East  Level Estimated
Tue 09:40:00 AM -34.5592 -58.4156 90° East  Level Estimated
Tue 09:41:00 AM -34.5592 -58.4156 90° East  Level Estimated

Login

Don't have an account? Register now (free) for customized features, flight alerts, and more!